sensor_id;sensor_type;location;lat;lon;timestamp;P1;durP1;ratioP1;P2;durP2;ratioP2
62332;SDS011;48624;49.812;8.562;2023-07-28T00:01:59;938.70;;;883.75;;
62332;SDS011;48624;49.812;8.562;2023-07-28T00:04:24;950.42;;;893.80;;
62332;SDS011;48624;49.812;8.562;2023-07-28T00:06:50;954.30;;;897.83;;
62332;SDS011;48624;49.812;8.562;2023-07-28T00:09:16;951.35;;;894.90;;
62332;SDS011;48624;49.812;8.562;2023-07-28T00:11:41;962.95;;;906.45;;
62332;SDS011;48624;49.812;8.562;2023-07-28T00:14:06;943.35;;;887.80;;
62332;SDS011;48624;49.812;8.562;2023-07-28T00:16:31;948.10;;;891.90;;
62332;SDS011;48624;49.812;8.562;2023-07-28T00:18:57;944.80;;;888.58;;
62332;SDS011;48624;49.812;8.562;2023-07-28T00:21:22;947.70;;;891.97;;
62332;SDS011;48624;49.812;8.562;2023-07-28T00:23:47;944.05;;;889.60;;
62332;SDS011;48624;49.812;8.562;2023-07-28T00:26:13;945.60;;;890.15;;
62332;SDS011;48624;49.812;8.562;2023-07-28T00:28:38;953.45;;;897.45;;
62332;SDS011;48624;49.812;8.562;2023-07-28T00:31:03;963.35;;;907.00;;
62332;SDS011;48624;49.812;8.562;2023-07-28T00:33:28;947.90;;;892.53;;
62332;SDS011;48624;49.812;8.562;2023-07-28T00:35:54;932.47;;;877.47;;
62332;SDS011;48624;49.812;8.562;2023-07-28T00:38:19;965.80;;;907.75;;
62332;SDS011;48624;49.812;8.562;2023-07-28T00:40:44;950.83;;;894.10;;
62332;SDS011;48624;49.812;8.562;2023-07-28T00:43:10;956.75;;;899.83;;
62332;SDS011;48624;49.812;8.562;2023-07-28T00:45:35;949.70;;;892.80;;
62332;SDS011;48624;49.812;8.562;2023-07-28T00:48:00;948.08;;;891.97;;
62332;SDS011;48624;49.812;8.562;2023-07-28T00:50:26;968.08;;;909.83;;
62332;SDS011;48624;49.812;8.562;2023-07-28T00:52:52;961.03;;;904.65;;
62332;SDS011;48624;49.812;8.562;2023-07-28T00:55:18;945.97;;;889.90;;
62332;SDS011;48624;49.812;8.562;2023-07-28T00:57:43;959.70;;;902.70;;
62332;SDS011;48624;49.812;8.562;2023-07-28T01:00:09;954.65;;;898.15;;
62332;SDS011;48624;49.812;8.562;2023-07-28T01:02:35;960.83;;;903.20;;
62332;SDS011;48624;49.812;8.562;2023-07-28T01:05:01;946.47;;;889.83;;
62332;SDS011;48624;49.812;8.562;2023-07-28T01:07:29;937.13;;;881.85;;
62332;SDS011;48624;49.812;8.562;2023-07-28T01:10:02;927.45;;;873.10;;
62332;SDS011;48624;49.812;8.562;2023-07-28T01:12:31;964.63;;;907.83;;
62332;SDS011;48624;49.812;8.562;2023-07-28T01:14:57;948.47;;;892.45;;
62332;SDS011;48624;49.812;8.562;2023-07-28T01:17:22;943.55;;;887.72;;
62332;SDS011;48624;49.812;8.562;2023-07-28T01:19:49;936.92;;;881.92;;
62332;SDS011;48624;49.812;8.562;2023-07-28T01:27:43;938.47;;;883.53;;
62332;SDS011;48624;49.812;8.562;2023-07-28T01:30:09;933.63;;;879.22;;
62332;SDS011;48624;49.812;8.562;2023-07-28T01:32:35;936.53;;;881.80;;
62332;SDS011;48624;49.812;8.562;2023-07-28T01:35:01;936.20;;;880.42;;
62332;SDS011;48624;49.812;8.562;2023-07-28T01:37:30;950.75;;;894.97;;
62332;SDS011;48624;49.812;8.562;2023-07-28T01:39:55;949.28;;;892.40;;
62332;SDS011;48624;49.812;8.562;2023-07-28T01:42:22;942.83;;;887.70;;
62332;SDS011;48624;49.812;8.562;2023-07-28T01:44:48;951.45;;;896.00;;
62332;SDS011;48624;49.812;8.562;2023-07-28T01:47:13;946.13;;;890.72;;
62332;SDS011;48624;49.812;8.562;2023-07-28T01:49:39;928.88;;;874.53;;
62332;SDS011;48624;49.812;8.562;2023-07-28T01:52:04;938.17;;;882.55;;
62332;SDS011;48624;49.812;8.562;2023-07-28T01:54:29;952.45;;;895.88;;
62332;SDS011;48624;49.812;8.562;2023-07-28T01:56:55;961.97;;;901.50;;
62332;SDS011;48624;49.812;8.562;2023-07-28T01:59:20;933.92;;;878.13;;
62332;SDS011;48624;49.812;8.562;2023-07-28T02:01:46;965.00;;;906.13;;
62332;SDS011;48624;49.812;8.562;2023-07-28T02:04:12;943.80;;;888.22;;
62332;SDS011;48624;49.812;8.562;2023-07-28T02:06:37;932.35;;;877.95;;
62332;SDS011;48624;49.812;8.562;2023-07-28T02:09:02;942.85;;;888.10;;
62332;SDS011;48624;49.812;8.562;2023-07-28T02:11:28;934.38;;;879.35;;
62332;SDS011;48624;49.812;8.562;2023-07-28T02:13:53;960.10;;;900.88;;
62332;SDS011;48624;49.812;8.562;2023-07-28T02:16:19;942.10;;;887.65;;
62332;SDS011;48624;49.812;8.562;2023-07-28T02:18:44;929.90;;;876.03;;
62332;SDS011;48624;49.812;8.562;2023-07-28T02:21:09;950.78;;;894.85;;
62332;SDS011;48624;49.812;8.562;2023-07-28T02:23:35;930.13;;;876.28;;
62332;SDS011;48624;49.812;8.562;2023-07-28T02:26:00;934.83;;;880.65;;
62332;SDS011;48624;49.812;8.562;2023-07-28T02:28:25;940.72;;;886.15;;
62332;SDS011;48624;49.812;8.562;2023-07-28T02:30:51;939.28;;;884.95;;
62332;SDS011;48624;49.812;8.562;2023-07-28T02:33:16;953.00;;;897.70;;
62332;SDS011;48624;49.812;8.562;2023-07-28T02:35:42;956.22;;;900.63;;
62332;SDS011;48624;49.812;8.562;2023-07-28T02:38:07;925.15;;;871.10;;
62332;SDS011;48624;49.812;8.562;2023-07-28T02:40:33;942.05;;;886.83;;
62332;SDS011;48624;49.812;8.562;2023-07-28T02:42:58;947.42;;;892.58;;
62332;SDS011;48624;49.812;8.562;2023-07-28T02:45:24;946.47;;;890.65;;
62332;SDS011;48624;49.812;8.562;2023-07-28T02:47:50;936.15;;;881.78;;
62332;SDS011;48624;49.812;8.562;2023-07-28T02:50:15;931.25;;;876.50;;
62332;SDS011;48624;49.812;8.562;2023-07-28T02:52:40;940.85;;;885.83;;
62332;SDS011;48624;49.812;8.562;2023-07-28T02:55:06;938.90;;;883.88;;
62332;SDS011;48624;49.812;8.562;2023-07-28T02:57:31;939.75;;;884.75;;
62332;SDS011;48624;49.812;8.562;2023-07-28T02:59:57;952.15;;;896.50;;
62332;SDS011;48624;49.812;8.562;2023-07-28T03:02:22;955.38;;;899.53;;
62332;SDS011;48624;49.812;8.562;2023-07-28T03:04:47;922.47;;;869.28;;
62332;SDS011;48624;49.812;8.562;2023-07-28T03:07:13;930.30;;;876.20;;
62332;SDS011;48624;49.812;8.562;2023-07-28T03:09:38;930.83;;;876.67;;
62332;SDS011;48624;49.812;8.562;2023-07-28T03:12:04;935.75;;;881.05;;
62332;SDS011;48624;49.812;8.562;2023-07-28T03:14:31;936.15;;;881.45;;
62332;SDS011;48624;49.812;8.562;2023-07-28T03:16:56;930.05;;;875.55;;
62332;SDS011;48624;49.812;8.562;2023-07-28T03:19:22;941.38;;;886.60;;
62332;SDS011;48624;49.812;8.562;2023-07-28T03:21:47;940.13;;;883.58;;
62332;SDS011;48624;49.812;8.562;2023-07-28T03:24:12;944.78;;;889.20;;
62332;SDS011;48624;49.812;8.562;2023-07-28T03:26:38;931.55;;;876.88;;
62332;SDS011;48624;49.812;8.562;2023-07-28T03:29:03;927.58;;;873.35;;
62332;SDS011;48624;49.812;8.562;2023-07-28T03:31:29;940.35;;;885.25;;
62332;SDS011;48624;49.812;8.562;2023-07-28T03:33:54;941.15;;;885.65;;
62332;SDS011;48624;49.812;8.562;2023-07-28T03:36:20;928.60;;;874.95;;
62332;SDS011;48624;49.812;8.562;2023-07-28T03:38:45;939.58;;;885.90;;
62332;SDS011;48624;49.812;8.562;2023-07-28T03:41:11;938.60;;;884.22;;
62332;SDS011;48624;49.812;8.562;2023-07-28T03:43:37;931.35;;;877.25;;
62332;SDS011;48624;49.812;8.562;2023-07-28T03:46:02;928.85;;;874.67;;
62332;SDS011;48624;49.812;8.562;2023-07-28T03:48:28;921.03;;;867.55;;
62332;SDS011;48624;49.812;8.562;2023-07-28T03:50:53;945.15;;;889.25;;
62332;SDS011;48624;49.812;8.562;2023-07-28T03:53:18;921.83;;;868.42;;
62332;SDS011;48624;49.812;8.562;2023-07-28T03:55:44;924.33;;;870.38;;
62332;SDS011;48624;49.812;8.562;2023-07-28T03:58:09;922.00;;;868.60;;
62332;SDS011;48624;49.812;8.562;2023-07-28T04:00:34;920.17;;;865.95;;
62332;SDS011;48624;49.812;8.562;2023-07-28T04:02:59;936.50;;;882.28;;
62332;SDS011;48624;49.812;8.562;2023-07-28T04:05:25;931.70;;;877.60;;
62332;SDS011;48624;49.812;8.562;2023-07-28T04:07:50;933.67;;;877.70;;
62332;SDS011;48624;49.812;8.562;2023-07-28T04:10:15;928.83;;;874.78;;
62332;SDS011;48624;49.812;8.562;2023-07-28T04:12:40;917.25;;;864.20;;
62332;SDS011;48624;49.812;8.562;2023-07-28T04:15:06;936.70;;;882.78;;
62332;SDS011;48624;49.812;8.562;2023-07-28T04:17:32;921.13;;;867.42;;
62332;SDS011;48624;49.812;8.562;2023-07-28T04:19:57;927.13;;;873.30;;
62332;SDS011;48624;49.812;8.562;2023-07-28T04:22:23;926.25;;;872.78;;
62332;SDS011;48624;49.812;8.562;2023-07-28T04:24:48;926.42;;;872.80;;
62332;SDS011;48624;49.812;8.562;2023-07-28T04:27:14;938.65;;;883.67;;
62332;SDS011;48624;49.812;8.562;2023-07-28T04:29:40;930.30;;;876.53;;
62332;SDS011;48624;49.812;8.562;2023-07-28T04:32:06;927.53;;;873.72;;
62332;SDS011;48624;49.812;8.562;2023-07-28T04:34:34;938.90;;;883.33;;
62332;SDS011;48624;49.812;8.562;2023-07-28T04:37:00;941.20;;;885.40;;
62332;SDS011;48624;49.812;8.562;2023-07-28T04:39:25;944.13;;;889.03;;
62332;SDS011;48624;49.812;8.562;2023-07-28T04:41:50;932.97;;;879.60;;
62332;SDS011;48624;49.812;8.562;2023-07-28T04:44:16;955.58;;;898.85;;
62332;SDS011;48624;49.812;8.562;2023-07-28T04:46:42;946.38;;;890.88;;
62332;SDS011;48624;49.812;8.562;2023-07-28T04:49:07;935.42;;;880.65;;
62332;SDS011;48624;49.812;8.562;2023-07-28T04:51:33;930.20;;;876.08;;
62332;SDS011;48624;49.812;8.562;2023-07-28T04:53:58;933.15;;;878.85;;
62332;SDS011;48624;49.812;8.562;2023-07-28T04:56:23;937.95;;;883.20;;
62332;SDS011;48624;49.812;8.562;2023-07-28T04:58:48;947.38;;;891.17;;
62332;SDS011;48624;49.812;8.562;2023-07-28T05:01:14;934.92;;;879.85;;
62332;SDS011;48624;49.812;8.562;2023-07-28T05:03:39;931.10;;;877.63;;
62332;SDS011;48624;49.812;8.562;2023-07-28T05:06:04;937.80;;;883.22;;
62332;SDS011;48624;49.812;8.562;2023-07-28T05:08:30;944.75;;;889.28;;
62332;SDS011;48624;49.812;8.562;2023-07-28T05:10:55;933.65;;;879.22;;
62332;SDS011;48624;49.812;8.562;2023-07-28T05:13:21;943.28;;;887.90;;
62332;SDS011;48624;49.812;8.562;2023-07-28T05:15:47;934.60;;;880.53;;
62332;SDS011;48624;49.812;8.562;2023-07-28T05:18:12;935.15;;;880.45;;
62332;SDS011;48624;49.812;8.562;2023-07-28T05:20:39;940.47;;;885.30;;
62332;SDS011;48624;49.812;8.562;2023-07-28T05:23:04;940.55;;;885.55;;
62332;SDS011;48624;49.812;8.562;2023-07-28T05:25:29;942.75;;;888.00;;
62332;SDS011;48624;49.812;8.562;2023-07-28T05:27:55;935.67;;;881.47;;
62332;SDS011;48624;49.812;8.562;2023-07-28T05:30:20;950.10;;;894.72;;
62332;SDS011;48624;49.812;8.562;2023-07-28T05:32:46;934.05;;;879.58;;
62332;SDS011;48624;49.812;8.562;2023-07-28T05:35:12;941.50;;;886.97;;
62332;SDS011;48624;49.812;8.562;2023-07-28T05:37:37;932.20;;;877.53;;
62332;SDS011;48624;49.812;8.562;2023-07-28T05:40:03;945.80;;;890.53;;
62332;SDS011;48624;49.812;8.562;2023-07-28T05:42:28;933.25;;;879.35;;
62332;SDS011;48624;49.812;8.562;2023-07-28T05:44:54;935.97;;;881.88;;
62332;SDS011;48624;49.812;8.562;2023-07-28T05:47:20;939.08;;;885.13;;
62332;SDS011;48624;49.812;8.562;2023-07-28T05:49:46;946.70;;;891.35;;
62332;SDS011;48624;49.812;8.562;2023-07-28T05:52:11;933.58;;;879.35;;
62332;SDS011;48624;49.812;8.562;2023-07-28T05:54:37;938.38;;;883.22;;
62332;SDS011;48624;49.812;8.562;2023-07-28T05:57:02;939.53;;;884.20;;
62332;SDS011;48624;49.812;8.562;2023-07-28T05:59:28;934.05;;;879.50;;
62332;SDS011;48624;49.812;8.562;2023-07-28T06:01:53;944.85;;;890.20;;
62332;SDS011;48624;49.812;8.562;2023-07-28T06:04:18;933.78;;;879.13;;
62332;SDS011;48624;49.812;8.562;2023-07-28T06:06:44;953.80;;;898.40;;
62332;SDS011;48624;49.812;8.562;2023-07-28T06:09:09;943.72;;;888.00;;
62332;SDS011;48624;49.812;8.562;2023-07-28T06:11:34;938.63;;;883.40;;
62332;SDS011;48624;49.812;8.562;2023-07-28T06:14:00;934.33;;;879.35;;
62332;SDS011;48624;49.812;8.562;2023-07-28T06:16:25;947.50;;;891.88;;
62332;SDS011;48624;49.812;8.562;2023-07-28T06:18:50;953.45;;;896.30;;
62332;SDS011;48624;49.812;8.562;2023-07-28T06:21:16;934.60;;;879.53;;
62332;SDS011;48624;49.812;8.562;2023-07-28T06:23:41;947.50;;;891.90;;
62332;SDS011;48624;49.812;8.562;2023-07-28T06:26:06;954.45;;;898.83;;
62332;SDS011;48624;49.812;8.562;2023-07-28T06:28:32;951.97;;;895.70;;
62332;SDS011;48624;49.812;8.562;2023-07-28T06:30:57;949.58;;;892.67;;
62332;SDS011;48624;49.812;8.562;2023-07-28T06:33:27;944.22;;;888.58;;
62332;SDS011;48624;49.812;8.562;2023-07-28T06:35:53;937.45;;;882.10;;
62332;SDS011;48624;49.812;8.562;2023-07-28T06:38:18;950.65;;;895.40;;
62332;SDS011;48624;49.812;8.562;2023-07-28T06:40:44;942.35;;;887.67;;
62332;SDS011;48624;49.812;8.562;2023-07-28T06:43:10;940.08;;;884.70;;
62332;SDS011;48624;49.812;8.562;2023-07-28T06:45:35;933.25;;;876.30;;
62332;SDS011;48624;49.812;8.562;2023-07-28T06:48:01;954.42;;;898.38;;
62332;SDS011;48624;49.812;8.562;2023-07-28T06:50:28;950.03;;;894.35;;
62332;SDS011;48624;49.812;8.562;2023-07-28T06:52:53;955.15;;;896.83;;
62332;SDS011;48624;49.812;8.562;2023-07-28T06:55:19;943.50;;;888.03;;
62332;SDS011;48624;49.812;8.562;2023-07-28T06:57:46;951.55;;;894.95;;
62332;SDS011;48624;49.812;8.562;2023-07-28T07:00:12;919.50;;;865.83;;
62332;SDS011;48624;49.812;8.562;2023-07-28T07:02:39;933.58;;;877.72;;
62332;SDS011;48624;49.812;8.562;2023-07-28T07:05:04;949.40;;;893.42;;
62332;SDS011;48624;49.812;8.562;2023-07-28T07:07:30;934.60;;;878.97;;
62332;SDS011;48624;49.812;8.562;2023-07-28T07:09:57;938.40;;;883.95;;
62332;SDS011;48624;49.812;8.562;2023-07-28T07:12:22;951.53;;;895.67;;
62332;SDS011;48624;49.812;8.562;2023-07-28T07:14:47;938.40;;;883.35;;
62332;SDS011;48624;49.812;8.562;2023-07-28T07:17:13;943.22;;;886.83;;
62332;SDS011;48624;49.812;8.562;2023-07-28T07:19:39;913.72;;;860.28;;
62332;SDS011;48624;49.812;8.562;2023-07-28T07:22:05;921.88;;;867.42;;
62332;SDS011;48624;49.812;8.562;2023-07-28T07:24:30;934.25;;;880.33;;
62332;SDS011;48624;49.812;8.562;2023-07-28T07:26:56;929.97;;;874.90;;
62332;SDS011;48624;49.812;8.562;2023-07-28T07:29:21;956.63;;;900.22;;
62332;SDS011;48624;49.812;8.562;2023-07-28T07:31:47;949.33;;;893.40;;
62332;SDS011;48624;49.812;8.562;2023-07-28T07:34:12;938.72;;;883.00;;
62332;SDS011;48624;49.812;8.562;2023-07-28T07:36:37;942.72;;;885.83;;
62332;SDS011;48624;49.812;8.562;2023-07-28T07:39:04;921.45;;;868.17;;
62332;SDS011;48624;49.812;8.562;2023-07-28T07:41:30;936.88;;;882.00;;
62332;SDS011;48624;49.812;8.562;2023-07-28T07:43:55;961.80;;;903.13;;
62332;SDS011;48624;49.812;8.562;2023-07-28T07:46:21;964.55;;;907.47;;
62332;SDS011;48624;49.812;8.562;2023-07-28T07:48:46;949.92;;;891.58;;
62332;SDS011;48624;49.812;8.562;2023-07-28T07:51:11;963.60;;;905.50;;
62332;SDS011;48624;49.812;8.562;2023-07-28T07:53:37;971.55;;;912.28;;
62332;SDS011;48624;49.812;8.562;2023-07-28T07:56:02;932.55;;;877.17;;
62332;SDS011;48624;49.812;8.562;2023-07-28T07:58:28;930.33;;;876.53;;
62332;SDS011;48624;49.812;8.562;2023-07-28T08:00:54;929.85;;;875.35;;
62332;SDS011;48624;49.812;8.562;2023-07-28T08:03:20;922.38;;;869.15;;
62332;SDS011;48624;49.812;8.562;2023-07-28T08:05:45;915.88;;;862.53;;
62332;SDS011;48624;49.812;8.562;2023-07-28T08:08:11;911.35;;;859.50;;
62332;SDS011;48624;49.812;8.562;2023-07-28T08:10:36;906.47;;;854.53;;
62332;SDS011;48624;49.812;8.562;2023-07-28T08:13:04;906.35;;;855.00;;
62332;SDS011;48624;49.812;8.562;2023-07-28T08:15:29;872.38;;;823.25;;
62332;SDS011;48624;49.812;8.562;2023-07-28T08:17:54;911.78;;;860.00;;
62332;SDS011;48624;49.812;8.562;2023-07-28T08:20:20;859.97;;;811.65;;
62332;SDS011;48624;49.812;8.562;2023-07-28T08:22:45;772.45;;;731.60;;
62332;SDS011;48624;49.812;8.562;2023-07-28T08:25:10;886.95;;;837.33;;
62332;SDS011;48624;49.812;8.562;2023-07-28T08:27:36;871.08;;;823.20;;
62332;SDS011;48624;49.812;8.562;2023-07-28T08:30:02;880.75;;;832.53;;
62332;SDS011;48624;49.812;8.562;2023-07-28T08:32:28;654.83;;;621.38;;
62332;SDS011;48624;49.812;8.562;2023-07-28T08:34:53;866.13;;;818.55;;
62332;SDS011;48624;49.812;8.562;2023-07-28T08:37:19;841.35;;;795.20;;
62332;SDS011;48624;49.812;8.562;2023-07-28T08:39:44;768.53;;;729.53;;
62332;SDS011;48624;49.812;8.562;2023-07-28T08:42:09;807.35;;;764.80;;
62332;SDS011;48624;49.812;8.562;2023-07-28T08:44:35;822.42;;;778.83;;
62332;SDS011;48624;49.812;8.562;2023-07-28T08:47:01;843.65;;;797.47;;
62332;SDS011;48624;49.812;8.562;2023-07-28T08:49:29;875.95;;;827.33;;
62332;SDS011;48624;49.812;8.562;2023-07-28T08:51:58;833.65;;;787.60;;
62332;SDS011;48624;49.812;8.562;2023-07-28T08:54:24;805.20;;;762.47;;
62332;SDS011;48624;49.812;8.562;2023-07-28T08:56:49;844.63;;;797.63;;
62332;SDS011;48624;49.812;8.562;2023-07-28T08:59:24;862.63;;;815.25;;
62332;SDS011;48624;49.812;8.562;2023-07-28T09:01:52;879.42;;;831.33;;
62332;SDS011;48624;49.812;8.562;2023-07-28T09:04:19;879.70;;;829.40;;
62332;SDS011;48624;49.812;8.562;2023-07-28T09:06:45;887.13;;;837.45;;
62332;SDS011;48624;49.812;8.562;2023-07-28T09:09:11;872.38;;;824.10;;
62332;SDS011;48624;49.812;8.562;2023-07-28T09:11:47;855.53;;;808.17;;
62332;SDS011;48624;49.812;8.562;2023-07-28T09:14:15;776.97;;;736.58;;
62332;SDS011;48624;49.812;8.562;2023-07-28T09:16:42;739.88;;;704.20;;
62332;SDS011;48624;49.812;8.562;2023-07-28T09:19:09;740.67;;;704.10;;
62332;SDS011;48624;49.812;8.562;2023-07-28T09:21:36;728.38;;;693.45;;
62332;SDS011;48624;49.812;8.562;2023-07-28T09:24:03;649.75;;;621.17;;
62332;SDS011;48624;49.812;8.562;2023-07-28T09:26:41;602.58;;;577.22;;
62332;SDS011;48624;49.812;8.562;2023-07-28T09:29:16;478.73;;;459.50;;
62332;SDS011;48624;49.812;8.562;2023-07-28T09:31:43;599.05;;;573.88;;
62332;SDS011;48624;49.812;8.562;2023-07-28T09:34:09;684.00;;;652.67;;
62332;SDS011;48624;49.812;8.562;2023-07-28T09:36:35;693.70;;;660.95;;
62332;SDS011;48624;49.812;8.562;2023-07-28T09:39:03;665.78;;;635.85;;
62332;SDS011;48624;49.812;8.562;2023-07-28T09:41:29;690.15;;;658.33;;
62332;SDS011;48624;49.812;8.562;2023-07-28T09:43:55;671.55;;;641.47;;
62332;SDS011;48624;49.812;8.562;2023-07-28T09:46:21;679.55;;;649.17;;
62332;SDS011;48624;49.812;8.562;2023-07-28T09:48:49;700.50;;;666.10;;
62332;SDS011;48624;49.812;8.562;2023-07-28T09:51:20;739.65;;;703.85;;
62332;SDS011;48624;49.812;8.562;2023-07-28T09:53:53;746.70;;;709.30;;
62332;SDS011;48624;49.812;8.562;2023-07-28T09:56:22;763.40;;;724.70;;
62332;SDS011;48624;49.812;8.562;2023-07-28T09:58:52;770.70;;;732.05;;
62332;SDS011;48624;49.812;8.562;2023-07-28T10:01:19;776.15;;;736.00;;
62332;SDS011;48624;49.812;8.562;2023-07-28T10:03:45;776.80;;;737.17;;
62332;SDS011;48624;49.812;8.562;2023-07-28T10:06:11;769.08;;;730.05;;
62332;SDS011;48624;49.812;8.562;2023-07-28T10:08:38;805.03;;;761.75;;
62332;SDS011;48624;49.812;8.562;2023-07-28T10:11:05;800.70;;;758.20;;
62332;SDS011;48624;49.812;8.562;2023-07-28T10:13:39;815.35;;;771.60;;
62332;SDS011;48624;49.812;8.562;2023-07-28T10:16:07;745.95;;;707.88;;
62332;SDS011;48624;49.812;8.562;2023-07-28T10:18:34;773.92;;;734.05;;
62332;SDS011;48624;49.812;8.562;2023-07-28T10:21:04;760.53;;;721.72;;
62332;SDS011;48624;49.812;8.562;2023-07-28T10:23:30;757.13;;;719.33;;
62332;SDS011;48624;49.812;8.562;2023-07-28T10:25:59;778.55;;;738.17;;
62332;SDS011;48624;49.812;8.562;2023-07-28T10:28:30;790.25;;;749.25;;
62332;SDS011;48624;49.812;8.562;2023-07-28T10:31:03;785.33;;;744.70;;
62332;SDS011;48624;49.812;8.562;2023-07-28T10:35:59;747.60;;;710.35;;
62332;SDS011;48624;49.812;8.562;2023-07-28T10:38:35;791.30;;;749.78;;
62332;SDS011;48624;49.812;8.562;2023-07-28T10:41:06;725.50;;;690.63;;
62332;SDS011;48624;49.812;8.562;2023-07-28T10:43:32;691.00;;;659.58;;
62332;SDS011;48624;49.812;8.562;2023-07-28T10:45:57;628.80;;;602.10;;
62332;SDS011;48624;49.812;8.562;2023-07-28T10:48:23;581.15;;;557.53;;
62332;SDS011;48624;49.812;8.562;2023-07-28T10:50:49;440.98;;;424.17;;
62332;SDS011;48624;49.812;8.562;2023-07-28T10:53:14;579.40;;;554.92;;
62332;SDS011;48624;49.812;8.562;2023-07-28T10:55:40;596.47;;;571.28;;
62332;SDS011;48624;49.812;8.562;2023-07-28T10:58:05;639.75;;;612.22;;
62332;SDS011;48624;49.812;8.562;2023-07-28T11:00:31;608.30;;;582.70;;
62332;SDS011;48624;49.812;8.562;2023-07-28T11:02:56;556.35;;;533.72;;
62332;SDS011;48624;49.812;8.562;2023-07-28T11:05:26;700.17;;;667.33;;
62332;SDS011;48624;49.812;8.562;2023-07-28T11:07:54;600.25;;;575.08;;
62332;SDS011;48624;49.812;8.562;2023-07-28T11:10:21;657.55;;;627.78;;
62332;SDS011;48624;49.812;8.562;2023-07-28T11:12:47;671.95;;;641.90;;
62332;SDS011;48624;49.812;8.562;2023-07-28T11:15:14;624.03;;;597.58;;
62332;SDS011;48624;49.812;8.562;2023-07-28T11:17:41;631.92;;;604.70;;
62332;SDS011;48624;49.812;8.562;2023-07-28T11:20:23;647.90;;;619.47;;
62332;SDS011;48624;49.812;8.562;2023-07-28T11:23:00;583.45;;;558.75;;
62332;SDS011;48624;49.812;8.562;2023-07-28T11:25:33;618.65;;;592.28;;
62332;SDS011;48624;49.812;8.562;2023-07-28T11:28:05;677.63;;;647.08;;
62332;SDS011;48624;49.812;8.562;2023-07-28T11:30:31;626.38;;;599.67;;
62332;SDS011;48624;49.812;8.562;2023-07-28T11:32:57;658.28;;;629.80;;
62332;SDS011;48624;49.812;8.562;2023-07-28T11:35:22;681.38;;;650.50;;
62332;SDS011;48624;49.812;8.562;2023-07-28T11:37:49;618.65;;;592.35;;
62332;SDS011;48624;49.812;8.562;2023-07-28T11:40:17;636.58;;;608.75;;
62332;SDS011;48624;49.812;8.562;2023-07-28T11:42:44;649.78;;;621.20;;
62332;SDS011;48624;49.812;8.562;2023-07-28T11:45:12;708.15;;;675.38;;
62332;SDS011;48624;49.812;8.562;2023-07-28T11:47:39;641.90;;;613.90;;
62332;SDS011;48624;49.812;8.562;2023-07-28T11:50:05;678.55;;;647.15;;
62332;SDS011;48624;49.812;8.562;2023-07-28T11:52:30;665.85;;;635.97;;
62332;SDS011;48624;49.812;8.562;2023-07-28T11:54:58;694.72;;;662.58;;
62332;SDS011;48624;49.812;8.562;2023-07-28T11:57:24;708.85;;;674.88;;
62332;SDS011;48624;49.812;8.562;2023-07-28T11:59:50;627.20;;;600.63;;
62332;SDS011;48624;49.812;8.562;2023-07-28T12:02:23;628.58;;;601.08;;
62332;SDS011;48624;49.812;8.562;2023-07-28T12:04:53;665.58;;;635.45;;
62332;SDS011;48624;49.812;8.562;2023-07-28T12:07:20;633.58;;;606.13;;
62332;SDS011;48624;49.812;8.562;2023-07-28T12:09:53;709.28;;;676.05;;
62332;SDS011;48624;49.812;8.562;2023-07-28T12:12:28;639.95;;;612.03;;
62332;SDS011;48624;49.812;8.562;2023-07-28T12:14:55;791.15;;;749.70;;
62332;SDS011;48624;49.812;8.562;2023-07-28T12:17:24;696.15;;;662.95;;
62332;SDS011;48624;49.812;8.562;2023-07-28T12:20:05;677.03;;;646.08;;
62332;SDS011;48624;49.812;8.562;2023-07-28T12:22:36;615.95;;;589.38;;
62332;SDS011;48624;49.812;8.562;2023-07-28T12:25:02;675.92;;;645.60;;
62332;SDS011;48624;49.812;8.562;2023-07-28T12:27:29;689.42;;;657.47;;
62332;SDS011;48624;49.812;8.562;2023-07-28T12:29:55;680.80;;;650.40;;
62332;SDS011;48624;49.812;8.562;2023-07-28T12:32:22;687.88;;;655.80;;
62332;SDS011;48624;49.812;8.562;2023-07-28T12:34:48;665.30;;;635.95;;
62332;SDS011;48624;49.812;8.562;2023-07-28T12:37:13;662.60;;;632.83;;
62332;SDS011;48624;49.812;8.562;2023-07-28T12:39:39;656.25;;;627.25;;
62332;SDS011;48624;49.812;8.562;2023-07-28T12:42:05;640.80;;;612.63;;
62332;SDS011;48624;49.812;8.562;2023-07-28T12:44:31;617.03;;;590.47;;
62332;SDS011;48624;49.812;8.562;2023-07-28T12:46:57;648.58;;;619.53;;
62332;SDS011;48624;49.812;8.562;2023-07-28T12:49:22;671.60;;;641.63;;
62332;SDS011;48624;49.812;8.562;2023-07-28T12:51:47;731.75;;;696.50;;
62332;SDS011;48624;49.812;8.562;2023-07-28T12:54:13;619.53;;;592.88;;
62332;SDS011;48624;49.812;8.562;2023-07-28T12:56:38;637.15;;;609.15;;
62332;SDS011;48624;49.812;8.562;2023-07-28T12:59:03;647.60;;;619.10;;
62332;SDS011;48624;49.812;8.562;2023-07-28T13:01:29;652.05;;;622.65;;
62332;SDS011;48624;49.812;8.562;2023-07-28T13:03:54;671.85;;;641.97;;
62332;SDS011;48624;49.812;8.562;2023-07-28T13:06:20;628.25;;;600.78;;
62332;SDS011;48624;49.812;8.562;2023-07-28T13:08:46;709.25;;;674.67;;
62332;SDS011;48624;49.812;8.562;2023-07-28T13:11:11;695.53;;;662.85;;
62332;SDS011;48624;49.812;8.562;2023-07-28T13:13:39;717.35;;;683.65;;
62332;SDS011;48624;49.812;8.562;2023-07-28T13:16:04;781.58;;;741.45;;
62332;SDS011;48624;49.812;8.562;2023-07-28T13:18:30;755.30;;;717.90;;
62332;SDS011;48624;49.812;8.562;2023-07-28T13:20:57;697.33;;;664.53;;
62332;SDS011;48624;49.812;8.562;2023-07-28T13:23:23;667.80;;;636.78;;
62332;SDS011;48624;49.812;8.562;2023-07-28T13:25:48;695.53;;;664.00;;
62332;SDS011;48624;49.812;8.562;2023-07-28T13:28:13;670.25;;;640.22;;
62332;SDS011;48624;49.812;8.562;2023-07-28T13:30:39;660.10;;;628.97;;
62332;SDS011;48624;49.812;8.562;2023-07-28T13:33:05;664.47;;;634.17;;
62332;SDS011;48624;49.812;8.562;2023-07-28T13:35:31;668.08;;;637.75;;
62332;SDS011;48624;49.812;8.562;2023-07-28T13:37:57;695.90;;;662.67;;
62332;SDS011;48624;49.812;8.562;2023-07-28T13:40:23;695.95;;;664.15;;
62332;SDS011;48624;49.812;8.562;2023-07-28T13:42:48;728.15;;;692.47;;
62332;SDS011;48624;49.812;8.562;2023-07-28T13:45:14;747.53;;;711.90;;
62332;SDS011;48624;49.812;8.562;2023-07-28T13:47:39;833.28;;;786.85;;
62332;SDS011;48624;49.812;8.562;2023-07-28T13:50:05;682.03;;;650.45;;
62332;SDS011;48624;49.812;8.562;2023-07-28T13:52:31;720.08;;;685.42;;
62332;SDS011;48624;49.812;8.562;2023-07-28T13:54:56;750.10;;;712.90;;
62332;SDS011;48624;49.812;8.562;2023-07-28T13:57:22;718.75;;;684.60;;
62332;SDS011;48624;49.812;8.562;2023-07-28T13:59:47;718.97;;;684.67;;